sensor_id;sensor_type;location;lat;lon;timestamp;pressure;altitude;pressure_sealevel;temperature;humidity
46682;BME280;34101;53.430;-2.224;2023-04-08T00:01:12;101927.01;;;9.35;56.05
46682;BME280;34101;53.430;-2.224;2023-04-08T00:03:40;101927.30;;;9.31;56.24
46682;BME280;34101;53.430;-2.224;2023-04-08T00:06:07;101927.57;;;9.27;56.48
46682;BME280;34101;53.430;-2.224;2023-04-08T00:08:35;101924.86;;;9.25;56.68
46682;BME280;34101;53.430;-2.224;2023-04-08T00:11:02;101923.45;;;9.22;56.79
46682;BME280;34101;53.430;-2.224;2023-04-08T00:13:29;101921.10;;;9.19;56.93
46682;BME280;34101;53.430;-2.224;2023-04-08T00:15:57;101919.06;;;9.16;57.22
46682;BME280;34101;53.430;-2.224;2023-04-08T00:18:24;101920.48;;;9.15;57.74
46682;BME280;34101;53.430;-2.224;2023-04-08T00:20:52;101919.97;;;9.14;58.11
46682;BME280;34101;53.430;-2.224;2023-04-08T00:23:19;101921.51;;;9.14;58.22
46682;BME280;34101;53.430;-2.224;2023-04-08T00:25:47;101919.83;;;9.11;58.46
46682;BME280;34101;53.430;-2.224;2023-04-08T00:28:14;101921.79;;;9.12;58.70
46682;BME280;34101;53.430;-2.224;2023-04-08T00:30:42;101920.14;;;9.11;58.99
46682;BME280;34101;53.430;-2.224;2023-04-08T00:33:10;101920.94;;;9.09;59.22
46682;BME280;34101;53.430;-2.224;2023-04-08T00:35:37;101922.46;;;9.10;59.77
46682;BME280;34101;53.430;-2.224;2023-04-08T00:38:05;101919.97;;;9.12;59.76
46682;BME280;34101;53.430;-2.224;2023-04-08T00:40:32;101919.46;;;9.14;59.97
46682;BME280;34101;53.430;-2.224;2023-04-08T00:43:00;101917.90;;;9.15;59.93
46682;BME280;34101;53.430;-2.224;2023-04-08T00:45:28;101922.16;;;9.15;60.23
46682;BME280;34101;53.430;-2.224;2023-04-08T00:47:55;101923.48;;;9.09;60.39
46682;BME280;34101;53.430;-2.224;2023-04-08T00:50:23;101921.29;;;9.10;60.48
46682;BME280;34101;53.430;-2.224;2023-04-08T00:52:50;101923.19;;;9.06;60.74
46682;BME280;34101;53.430;-2.224;2023-04-08T00:55:17;101926.57;;;9.05;60.65
46682;BME280;34101;53.430;-2.224;2023-04-08T00:57:45;101924.31;;;9.05;60.78
46682;BME280;34101;53.430;-2.224;2023-04-08T01:00:13;101926.04;;;9.01;61.12
46682;BME280;34101;53.430;-2.224;2023-04-08T01:02:47;101923.97;;;8.99;61.27
46682;BME280;34101;53.430;-2.224;2023-04-08T01:05:22;101925.80;;;8.94;61.45
46682;BME280;34101;53.430;-2.224;2023-04-08T01:07:55;101924.48;;;8.91;61.76
46682;BME280;34101;53.430;-2.224;2023-04-08T01:10:27;101926.79;;;8.90;61.98
46682;BME280;34101;53.430;-2.224;2023-04-08T01:12:58;101926.80;;;8.90;61.98
46682;BME280;34101;53.430;-2.224;2023-04-08T01:15:27;101928.48;;;8.87;62.18
46682;BME280;34101;53.430;-2.224;2023-04-08T01:17:56;101930.06;;;8.88;62.24
46682;BME280;34101;53.430;-2.224;2023-04-08T01:20:26;101933.62;;;8.88;62.29
46682;BME280;34101;53.430;-2.224;2023-04-08T01:23:03;101933.08;;;8.85;62.36
46682;BME280;34101;53.430;-2.224;2023-04-08T01:25:34;101929.72;;;8.82;62.53
46682;BME280;34101;53.430;-2.224;2023-04-08T01:28:05;101931.65;;;8.81;62.53
46682;BME280;34101;53.430;-2.224;2023-04-08T01:30:35;101931.30;;;8.80;62.63
46682;BME280;34101;53.430;-2.224;2023-04-08T01:33:05;101933.20;;;8.76;62.73
46682;BME280;34101;53.430;-2.224;2023-04-08T01:35:32;101934.62;;;8.77;62.86
46682;BME280;34101;53.430;-2.224;2023-04-08T01:38:00;101933.15;;;8.76;63.08
46682;BME280;34101;53.430;-2.224;2023-04-08T01:40:29;101937.36;;;8.81;63.31
46682;BME280;34101;53.430;-2.224;2023-04-08T01:42:58;101938.02;;;8.82;63.41
46682;BME280;34101;53.430;-2.224;2023-04-08T01:45:27;101937.93;;;8.84;63.57
46682;BME280;34101;53.430;-2.224;2023-04-08T01:47:56;101939.65;;;8.85;63.53
46682;BME280;34101;53.430;-2.224;2023-04-08T01:50:25;101939.56;;;8.87;63.44
46682;BME280;34101;53.430;-2.224;2023-04-08T01:52:53;101938.20;;;8.85;63.54
46682;BME280;34101;53.430;-2.224;2023-04-08T01:55:22;101939.30;;;8.82;63.72
46682;BME280;34101;53.430;-2.224;2023-04-08T01:57:51;101938.33;;;8.80;63.82
46682;BME280;34101;53.430;-2.224;2023-04-08T02:00:24;101941.37;;;8.83;64.04
46682;BME280;34101;53.430;-2.224;2023-04-08T02:02:52;101942.97;;;8.80;63.93
46682;BME280;34101;53.430;-2.224;2023-04-08T02:05:20;101943.18;;;8.76;63.92
46682;BME280;34101;53.430;-2.224;2023-04-08T02:07:48;101941.87;;;8.74;63.91
46682;BME280;34101;53.430;-2.224;2023-04-08T02:10:16;101944.44;;;8.70;64.06
46682;BME280;34101;53.430;-2.224;2023-04-08T02:12:44;101941.37;;;8.67;64.03
46682;BME280;34101;53.430;-2.224;2023-04-08T02:15:12;101940.53;;;8.67;64.17
46682;BME280;34101;53.430;-2.224;2023-04-08T02:17:43;101941.61;;;8.62;64.30
46682;BME280;34101;53.430;-2.224;2023-04-08T02:20:15;101945.90;;;8.60;64.34
46682;BME280;34101;53.430;-2.224;2023-04-08T02:22:47;101945.36;;;8.59;64.51
46682;BME280;34101;53.430;-2.224;2023-04-08T02:25:16;101943.97;;;8.58;64.43
46682;BME280;34101;53.430;-2.224;2023-04-08T02:27:47;101942.85;;;8.57;64.43
46682;BME280;34101;53.430;-2.224;2023-04-08T02:30:16;101944.72;;;8.54;64.66
46682;BME280;34101;53.430;-2.224;2023-04-08T02:32:44;101948.85;;;8.55;64.79
46682;BME280;34101;53.430;-2.224;2023-04-08T02:35:13;101951.86;;;8.54;64.93
46682;BME280;34101;53.430;-2.224;2023-04-08T02:37:42;101951.88;;;8.54;65.11
46682;BME280;34101;53.430;-2.224;2023-04-08T02:40:28;101951.37;;;8.53;65.16
46682;BME280;34101;53.430;-2.224;2023-04-08T02:42:56;101955.43;;;8.55;65.46
46682;BME280;34101;53.430;-2.224;2023-04-08T02:45:26;101955.10;;;8.54;65.52
46682;BME280;34101;53.430;-2.224;2023-04-08T02:47:54;101953.50;;;8.54;65.63
46682;BME280;34101;53.430;-2.224;2023-04-08T02:50:21;101955.15;;;8.54;65.69
46682;BME280;34101;53.430;-2.224;2023-04-08T02:52:49;101963.88;;;8.53;65.73
46682;BME280;34101;53.430;-2.224;2023-04-08T02:55:16;101965.33;;;8.47;65.76
46682;BME280;34101;53.430;-2.224;2023-04-08T02:57:45;101967.41;;;8.45;65.98
46682;BME280;34101;53.430;-2.224;2023-04-08T03:00:14;101971.11;;;8.44;65.90
46682;BME280;34101;53.430;-2.224;2023-04-08T03:02:43;101971.98;;;8.44;65.82
46682;BME280;34101;53.430;-2.224;2023-04-08T03:05:10;101974.26;;;8.44;65.69
46682;BME280;34101;53.430;-2.224;2023-04-08T03:07:37;101977.82;;;8.42;65.79
46682;BME280;34101;53.430;-2.224;2023-04-08T03:10:06;101979.21;;;8.39;65.95
46682;BME280;34101;53.430;-2.224;2023-04-08T03:12:33;101979.78;;;8.36;66.03
46682;BME280;34101;53.430;-2.224;2023-04-08T03:15:00;101983.55;;;8.38;66.34
46682;BME280;34101;53.430;-2.224;2023-04-08T03:17:28;101983.88;;;8.42;66.45
46682;BME280;34101;53.430;-2.224;2023-04-08T03:19:55;101986.80;;;8.44;66.31
46682;BME280;34101;53.430;-2.224;2023-04-08T03:22:22;101986.30;;;8.46;66.30
46682;BME280;34101;53.430;-2.224;2023-04-08T03:24:50;101981.89;;;8.46;66.31
46682;BME280;34101;53.430;-2.224;2023-04-08T03:27:17;101982.55;;;8.44;66.48
46682;BME280;34101;53.430;-2.224;2023-04-08T03:29:44;101982.39;;;8.45;66.43
46682;BME280;34101;53.430;-2.224;2023-04-08T03:32:12;101986.08;;;8.44;66.29
46682;BME280;34101;53.430;-2.224;2023-04-08T03:34:40;101985.08;;;8.41;66.41
46682;BME280;34101;53.430;-2.224;2023-04-08T03:37:07;101982.51;;;8.38;66.22
46682;BME280;34101;53.430;-2.224;2023-04-08T03:39:34;101986.94;;;8.36;66.41
46682;BME280;34101;53.430;-2.224;2023-04-08T03:42:02;101990.64;;;8.33;66.32
46682;BME280;34101;53.430;-2.224;2023-04-08T03:44:30;101988.32;;;8.29;66.26
46682;BME280;34101;53.430;-2.224;2023-04-08T03:46:57;101985.74;;;8.23;66.36
46682;BME280;34101;53.430;-2.224;2023-04-08T03:49:25;101986.82;;;8.18;66.57
46682;BME280;34101;53.430;-2.224;2023-04-08T03:51:52;101986.59;;;8.15;66.65
46682;BME280;34101;53.430;-2.224;2023-04-08T03:54:19;101987.74;;;8.13;66.60
46682;BME280;34101;53.430;-2.224;2023-04-08T03:56:47;101988.42;;;8.09;66.63
46682;BME280;34101;53.430;-2.224;2023-04-08T03:59:15;101987.87;;;8.07;66.69
46682;BME280;34101;53.430;-2.224;2023-04-08T04:01:43;101985.04;;;8.04;66.76
46682;BME280;34101;53.430;-2.224;2023-04-08T04:04:10;101981.33;;;8.01;66.87
46682;BME280;34101;53.430;-2.224;2023-04-08T04:06:38;101980.77;;;7.99;66.98
46682;BME280;34101;53.430;-2.224;2023-04-08T04:09:06;101982.12;;;7.97;66.97
46682;BME280;34101;53.430;-2.224;2023-04-08T04:11:34;101983.11;;;7.97;66.89
46682;BME280;34101;53.430;-2.224;2023-04-08T04:14:01;101984.17;;;7.95;66.98
46682;BME280;34101;53.430;-2.224;2023-04-08T04:16:28;101986.16;;;7.92;67.10
46682;BME280;34101;53.430;-2.224;2023-04-08T04:18:56;101988.55;;;7.91;67.17
46682;BME280;34101;53.430;-2.224;2023-04-08T04:21:23;101989.79;;;7.88;67.22
46682;BME280;34101;53.430;-2.224;2023-04-08T04:23:50;101989.97;;;7.85;67.22
46682;BME280;34101;53.430;-2.224;2023-04-08T04:26:18;101988.26;;;7.81;67.24
46682;BME280;34101;53.430;-2.224;2023-04-08T04:28:44;101990.90;;;7.81;67.09
46682;BME280;34101;53.430;-2.224;2023-04-08T04:31:17;101995.30;;;7.78;67.16
46682;BME280;34101;53.430;-2.224;2023-04-08T04:33:44;101999.37;;;7.77;67.20
46682;BME280;34101;53.430;-2.224;2023-04-08T04:36:12;102001.85;;;7.74;67.27
46682;BME280;34101;53.430;-2.224;2023-04-08T04:38:39;102004.30;;;7.72;67.21
46682;BME280;34101;53.430;-2.224;2023-04-08T04:41:06;102009.59;;;7.70;67.18
46682;BME280;34101;53.430;-2.224;2023-04-08T04:43:33;102012.25;;;7.69;67.18
46682;BME280;34101;53.430;-2.224;2023-04-08T04:46:01;102012.07;;;7.63;67.33
46682;BME280;34101;53.430;-2.224;2023-04-08T04:48:28;102012.19;;;7.62;67.38
46682;BME280;34101;53.430;-2.224;2023-04-08T04:50:56;102008.68;;;7.57;67.47
46682;BME280;34101;53.430;-2.224;2023-04-08T04:53:25;102011.12;;;7.50;67.64
46682;BME280;34101;53.430;-2.224;2023-04-08T04:55:51;102008.37;;;7.47;67.88
46682;BME280;34101;53.430;-2.224;2023-04-08T04:58:19;102010.31;;;7.47;67.74
46682;BME280;34101;53.430;-2.224;2023-04-08T05:00:47;102012.08;;;7.42;67.72
46682;BME280;34101;53.430;-2.224;2023-04-08T05:03:14;102012.92;;;7.40;67.68
46682;BME280;34101;53.430;-2.224;2023-04-08T05:05:42;102013.32;;;7.38;67.77
46682;BME280;34101;53.430;-2.224;2023-04-08T05:08:09;102016.24;;;7.34;67.71
46682;BME280;34101;53.430;-2.224;2023-04-08T05:10:38;102019.75;;;7.28;67.80
46682;BME280;34101;53.430;-2.224;2023-04-08T05:13:06;102021.67;;;7.26;67.81
46682;BME280;34101;53.430;-2.224;2023-04-08T05:15:33;102019.57;;;7.25;67.72
46682;BME280;34101;53.430;-2.224;2023-04-08T05:18:00;102021.34;;;7.22;67.69
46682;BME280;34101;53.430;-2.224;2023-04-08T05:20:28;102030.16;;;7.18;67.75
46682;BME280;34101;53.430;-2.224;2023-04-08T05:22:55;102032.28;;;7.14;67.78
46682;BME280;34101;53.430;-2.224;2023-04-08T05:25:23;102031.31;;;7.11;67.76
46682;BME280;34101;53.430;-2.224;2023-04-08T05:27:50;102035.49;;;7.08;67.82
46682;BME280;34101;53.430;-2.224;2023-04-08T05:30:17;102038.62;;;7.04;67.83
46682;BME280;34101;53.430;-2.224;2023-04-08T05:32:44;102046.10;;;7.05;67.77
46682;BME280;34101;53.430;-2.224;2023-04-08T05:35:11;102048.06;;;7.03;67.81
46682;BME280;34101;53.430;-2.224;2023-04-08T05:37:39;102049.73;;;7.02;67.75
46682;BME280;34101;53.430;-2.224;2023-04-08T05:40:11;102052.31;;;7.00;67.70
46682;BME280;34101;53.430;-2.224;2023-04-08T05:42:39;102053.46;;;7.00;67.73
46682;BME280;34101;53.430;-2.224;2023-04-08T05:45:06;102049.93;;;7.02;67.67
46682;BME280;34101;53.430;-2.224;2023-04-08T05:47:33;102052.31;;;7.03;67.54
46682;BME280;34101;53.430;-2.224;2023-04-08T05:50:01;102051.12;;;6.99;67.44
46682;BME280;34101;53.430;-2.224;2023-04-08T05:52:28;102052.45;;;6.95;67.78
46682;BME280;34101;53.430;-2.224;2023-04-08T05:54:56;102053.40;;;6.92;67.90
46682;BME280;34101;53.430;-2.224;2023-04-08T05:57:24;102055.07;;;6.90;67.96
46682;BME280;34101;53.430;-2.224;2023-04-08T05:59:51;102052.09;;;6.92;68.18
46682;BME280;34101;53.430;-2.224;2023-04-08T06:02:18;102054.87;;;6.96;68.02
46682;BME280;34101;53.430;-2.224;2023-04-08T06:04:45;102058.87;;;6.99;67.73
46682;BME280;34101;53.430;-2.224;2023-04-08T06:07:13;102061.93;;;6.98;67.90
46682;BME280;34101;53.430;-2.224;2023-04-08T06:09:40;102064.36;;;7.01;67.88
46682;BME280;34101;53.430;-2.224;2023-04-08T06:12:08;102069.93;;;7.07;67.78
46682;BME280;34101;53.430;-2.224;2023-04-08T06:14:35;102073.50;;;7.06;67.86
46682;BME280;34101;53.430;-2.224;2023-04-08T06:17:03;102071.67;;;7.11;67.87
46682;BME280;34101;53.430;-2.224;2023-04-08T06:19:31;102075.74;;;7.17;67.85
46682;BME280;34101;53.430;-2.224;2023-04-08T06:21:58;102076.60;;;7.26;67.78
46682;BME280;34101;53.430;-2.224;2023-04-08T06:24:25;102077.43;;;7.35;67.71
46682;BME280;34101;53.430;-2.224;2023-04-08T06:26:53;102079.44;;;7.42;67.70
46682;BME280;34101;53.430;-2.224;2023-04-08T06:29:21;102080.53;;;7.48;67.80
46682;BME280;34101;53.430;-2.224;2023-04-08T06:31:48;102078.22;;;7.58;67.68
46682;BME280;34101;53.430;-2.224;2023-04-08T06:34:15;102081.35;;;7.67;67.65
46682;BME280;34101;53.430;-2.224;2023-04-08T06:36:43;102080.68;;;7.74;67.57
46682;BME280;34101;53.430;-2.224;2023-04-08T06:39:11;102082.01;;;7.80;67.43
46682;BME280;34101;53.430;-2.224;2023-04-08T06:41:38;102090.53;;;7.87;67.44
46682;BME280;34101;53.430;-2.224;2023-04-08T06:44:05;102092.05;;;7.94;67.34
46682;BME280;34101;53.430;-2.224;2023-04-08T06:46:32;102093.38;;;7.98;67.18
46682;BME280;34101;53.430;-2.224;2023-04-08T06:49:00;102098.64;;;8.05;67.06
46682;BME280;34101;53.430;-2.224;2023-04-08T06:51:27;102096.92;;;8.11;66.99
46682;BME280;34101;53.430;-2.224;2023-04-08T06:53:54;102097.25;;;8.19;67.02
46682;BME280;34101;53.430;-2.224;2023-04-08T06:56:21;102096.12;;;8.27;67.19
46682;BME280;34101;53.430;-2.224;2023-04-08T06:58:49;102098.78;;;8.40;67.01
46682;BME280;34101;53.430;-2.224;2023-04-08T07:01:26;102104.16;;;8.51;66.53
46682;BME280;34101;53.430;-2.224;2023-04-08T07:03:53;102104.41;;;8.59;66.26
46682;BME280;34101;53.430;-2.224;2023-04-08T07:06:46;102105.08;;;8.74;65.96
46682;BME280;34101;53.430;-2.224;2023-04-08T07:09:15;102107.74;;;8.91;65.75
46682;BME280;34101;53.430;-2.224;2023-04-08T07:11:43;102110.22;;;9.06;65.25
46682;BME280;34101;53.430;-2.224;2023-04-08T07:14:21;102110.36;;;9.22;65.04
46682;BME280;34101;53.430;-2.224;2023-04-08T07:16:50;102110.83;;;9.39;64.88
46682;BME280;34101;53.430;-2.224;2023-04-08T07:21:03;102111.25;;;9.69;64.03
46682;BME280;34101;53.430;-2.224;2023-04-08T07:23:32;102108.70;;;9.84;63.97
46682;BME280;34101;53.430;-2.224;2023-04-08T07:26:05;102107.68;;;10.00;63.66
46682;BME280;34101;53.430;-2.224;2023-04-08T07:29:30;102110.60;;;10.19;63.24
46682;BME280;34101;53.430;-2.224;2023-04-08T07:31:59;102114.36;;;10.29;62.63
46682;BME280;34101;53.430;-2.224;2023-04-08T07:34:27;102116.86;;;10.39;62.68
46682;BME280;34101;53.430;-2.224;2023-04-08T07:36:54;102117.94;;;10.52;62.15
46682;BME280;34101;53.430;-2.224;2023-04-08T07:39:21;102117.42;;;10.64;62.10
46682;BME280;34101;53.430;-2.224;2023-04-08T07:42:30;102122.76;;;10.84;61.66
46682;BME280;34101;53.430;-2.224;2023-04-08T07:44:57;102122.61;;;10.97;60.94
46682;BME280;34101;53.430;-2.224;2023-04-08T07:47:25;102126.99;;;11.05;60.58
46682;BME280;34101;53.430;-2.224;2023-04-08T07:49:52;102126.55;;;11.20;59.99
46682;BME280;34101;53.430;-2.224;2023-04-08T07:52:19;102126.94;;;11.29;59.37
46682;BME280;34101;53.430;-2.224;2023-04-08T07:54:46;102127.60;;;11.42;58.90
46682;BME280;34101;53.430;-2.224;2023-04-08T07:57:13;102130.24;;;11.56;58.59
46682;BME280;34101;53.430;-2.224;2023-04-08T07:59:40;102131.82;;;11.67;58.17
46682;BME280;34101;53.430;-2.224;2023-04-08T08:02:07;102133.30;;;11.78;57.84
46682;BME280;34101;53.430;-2.224;2023-04-08T08:04:35;102134.75;;;11.99;57.64
46682;BME280;34101;53.430;-2.224;2023-04-08T08:07:02;102135.30;;;12.20;56.79
46682;BME280;34101;53.430;-2.224;2023-04-08T08:09:29;102134.29;;;12.43;56.08
46682;BME280;34101;53.430;-2.224;2023-04-08T08:11:57;102134.23;;;12.41;54.76
46682;BME280;34101;53.430;-2.224;2023-04-08T08:14:24;102131.65;;;12.52;55.00
46682;BME280;34101;53.430;-2.224;2023-04-08T08:16:56;102137.01;;;12.55;54.28
46682;BME280;34101;53.430;-2.224;2023-04-08T08:19:24;102135.65;;;12.62;53.55
46682;BME280;34101;53.430;-2.224;2023-04-08T08:21:51;102136.41;;;12.85;53.52
46682;BME280;34101;53.430;-2.224;2023-04-08T08:24:19;102134.63;;;12.96;52.33
46682;BME280;34101;53.430;-2.224;2023-04-08T08:26:46;102139.71;;;13.17;52.35
46682;BME280;34101;53.430;-2.224;2023-04-08T08:29:14;102144.54;;;13.42;51.93
46682;BME280;34101;53.430;-2.224;2023-04-08T08:31:41;102142.73;;;13.66;51.04
46682;BME280;34101;53.430;-2.224;2023-04-08T08:34:09;102146.76;;;14.14;49.76
46682;BME280;34101;53.430;-2.224;2023-04-08T08:36:36;102152.21;;;14.94;47.44
46682;BME280;34101;53.430;-2.224;2023-04-08T08:39:04;102149.16;;;15.87;45.13
46682;BME280;34101;53.430;-2.224;2023-04-08T08:41:33;102145.57;;;16.76;42.91
46682;BME280;34101;53.430;-2.224;2023-04-08T08:44:01;102142.33;;;17.68;41.35
46682;BME280;34101;53.430;-2.224;2023-04-08T08:46:31;102142.12;;;18.00;38.35
46682;BME280;34101;53.430;-2.224;2023-04-08T08:48:59;102145.53;;;18.75;37.71
46682;BME280;34101;53.430;-2.224;2023-04-08T08:51:31;102145.21;;;19.25;35.62
46682;BME280;34101;53.430;-2.224;2023-04-08T08:54:01;102147.47;;;19.26;35.84
46682;BME280;34101;53.430;-2.224;2023-04-08T08:56:29;102148.87;;;19.19;36.06
46682;BME280;34101;53.430;-2.224;2023-04-08T08:58:57;102151.99;;;19.57;35.23
46682;BME280;34101;53.430;-2.224;2023-04-08T09:01:30;102150.08;;;19.63;34.21
46682;BME280;34101;53.430;-2.224;2023-04-08T09:04:09;102148.11;;;20.19;33.62
46682;BME280;34101;53.430;-2.224;2023-04-08T09:06:37;102149.06;;;20.54;32.61
46682;BME280;34101;53.430;-2.224;2023-04-08T09:09:04;102149.90;;;21.09;32.01
46682;BME280;34101;53.430;-2.224;2023-04-08T09:11:31;102146.71;;;21.06;31.18
46682;BME280;34101;53.430;-2.224;2023-04-08T09:13:59;102143.31;;;21.23;30.92
46682;BME280;34101;53.430;-2.224;2023-04-08T09:16:27;102146.08;;;21.57;30.64
46682;BME280;34101;53.430;-2.224;2023-04-08T09:19:09;102142.83;;;22.22;29.39
46682;BME280;34101;53.430;-2.224;2023-04-08T09:21:37;102144.89;;;21.74;30.01
46682;BME280;34101;53.430;-2.224;2023-04-08T09:24:04;102142.07;;;21.76;29.26
46682;BME280;34101;53.430;-2.224;2023-04-08T09:26:31;102140.05;;;21.84;29.11
46682;BME280;34101;53.430;-2.224;2023-04-08T09:29:00;102144.03;;;22.57;27.92
46682;BME280;34101;53.430;-2.224;2023-04-08T09:31:29;102138.69;;;23.08;26.88
46682;BME280;34101;53.430;-2.224;2023-04-08T09:33:58;102138.35;;;23.66;26.45
46682;BME280;34101;53.430;-2.224;2023-04-08T09:36:31;102146.35;;;20.82;29.61
46682;BME280;34101;53.430;-2.224;2023-04-08T09:38:58;102148.12;;;21.46;28.88
46682;BME280;34101;53.430;-2.224;2023-04-08T09:41:27;102143.29;;;22.30;27.50
46682;BME280;34101;53.430;-2.224;2023-04-08T09:43:56;102145.45;;;21.73;28.42
46682;BME280;34101;53.430;-2.224;2023-04-08T09:46:26;102149.00;;;21.21;28.88
46682;BME280;34101;53.430;-2.224;2023-04-08T09:49:03;102143.72;;;22.48;25.66
46682;BME280;34101;53.430;-2.224;2023-04-08T09:51:34;102140.74;;;23.07;24.93
46682;BME280;34101;53.430;-2.224;2023-04-08T09:54:13;102144.94;;;23.44;24.31
46682;BME280;34101;53.430;-2.224;2023-04-08T09:56:43;102144.68;;;23.05;24.31
46682;BME280;34101;53.430;-2.224;2023-04-08T09:59:14;102149.00;;;23.23;24.41
46682;BME280;34101;53.430;-2.224;2023-04-08T10:01:52;102149.99;;;23.48;24.28
46682;BME280;34101;53.430;-2.224;2023-04-08T10:04:21;102149.22;;;23.75;23.81
46682;BME280;34101;53.430;-2.224;2023-04-08T10:06:53;102143.23;;;23.93;23.14
46682;BME280;34101;53.430;-2.224;2023-04-08T10:11:13;102140.23;;;24.13;22.08
46682;BME280;34101;53.430;-2.224;2023-04-08T10:13:48;102142.83;;;24.75;20.99
46682;BME280;34101;53.430;-2.224;2023-04-08T10:16:19;102139.03;;;22.02;24.60
46682;BME280;34101;53.430;-2.224;2023-04-08T10:20:42;102134.16;;;23.19;23.87
46682;BME280;34101;53.430;-2.224;2023-04-08T10:23:11;102139.18;;;22.70;24.32
46682;BME280;34101;53.430;-2.224;2023-04-08T10:25:40;102136.85;;;23.13;23.37
46682;BME280;34101;53.430;-2.224;2023-04-08T10:28:24;102136.25;;;22.78;22.93
46682;BME280;34101;53.430;-2.224;2023-04-08T10:30:54;102134.88;;;24.20;19.56
46682;BME280;34101;53.430;-2.224;2023-04-08T10:33:24;102137.19;;;24.25;19.73
46682;BME280;34101;53.430;-2.224;2023-04-08T10:36:00;102133.53;;;24.22;19.51
46682;BME280;34101;53.430;-2.224;2023-04-08T10:38:34;102133.27;;;24.63;20.33
46682;BME280;34101;53.430;-2.224;2023-04-08T10:41:02;102129.10;;;25.29;19.29
46682;BME280;34101;53.430;-2.224;2023-04-08T10:43:31;102128.22;;;25.33;19.52
46682;BME280;34101;53.430;-2.224;2023-04-08T10:46:00;102127.48;;;24.83;19.61
46682;BME280;34101;53.430;-2.224;2023-04-08T10:48:27;102121.81;;;23.79;20.81
46682;BME280;34101;53.430;-2.224;2023-04-08T10:50:55;102116.93;;;24.38;20.62
46682;BME280;34101;53.430;-2.224;2023-04-08T10:53:25;102112.98;;;25.40;19.60
46682;BME280;34101;53.430;-2.224;2023-04-08T10:55:52;102119.54;;;22.20;21.33
46682;BME280;34101;53.430;-2.224;2023-04-08T10:58:20;102117.47;;;22.16;20.99
46682;BME280;34101;53.430;-2.224;2023-04-08T11:00:47;102123.86;;;20.17;23.64
46682;BME280;34101;53.430;-2.224;2023-04-08T11:03:15;102119.78;;;21.39;21.90
46682;BME280;34101;53.430;-2.224;2023-04-08T11:05:42;102116.72;;;21.21;21.35
46682;BME280;34101;53.430;-2.224;2023-04-08T11:08:09;102113.86;;;21.34;21.67
46682;BME280;34101;53.430;-2.224;2023-04-08T11:10:37;102109.25;;;22.00;20.32
46682;BME280;34101;53.430;-2.224;2023-04-08T11:13:06;102104.92;;;23.78;17.93
46682;BME280;34101;53.430;-2.224;2023-04-08T11:15:35;102104.22;;;23.12;20.04
46682;BME280;34101;53.430;-2.224;2023-04-08T11:18:04;102103.17;;;23.52;20.19
46682;BME280;34101;53.430;-2.224;2023-04-08T11:20:32;102107.30;;;23.25;18.64
46682;BME280;34101;53.430;-2.224;2023-04-08T11:22:59;102105.49;;;23.74;17.93
46682;BME280;34101;53.430;-2.224;2023-04-08T11:25:27;102104.34;;;24.53;17.52
46682;BME280;34101;53.430;-2.224;2023-04-08T11:27:55;102107.44;;;25.27;16.30
46682;BME280;34101;53.430;-2.224;2023-04-08T11:30:23;102109.56;;;23.14;18.82
46682;BME280;34101;53.430;-2.224;2023-04-08T11:32:50;102112.73;;;21.51;19.57
46682;BME280;34101;53.430;-2.224;2023-04-08T11:35:19;102107.57;;;23.19;18.41
46682;BME280;34101;53.430;-2.224;2023-04-08T11:37:46;102102.53;;;22.64;18.93
46682;BME280;34101;53.430;-2.224;2023-04-08T11:40:19;102101.06;;;23.40;18.02
46682;BME280;34101;53.430;-2.224;2023-04-08T11:42:47;102101.27;;;22.72;18.70
46682;BME280;34101;53.430;-2.224;2023-04-08T11:45:15;102101.51;;;23.69;17.68
46682;BME280;34101;53.430;-2.224;2023-04-08T11:47:44;102105.67;;;23.74;17.03
46682;BME280;34101;53.430;-2.224;2023-04-08T11:50:11;102095.58;;;23.39;17.11
46682;BME280;34101;53.430;-2.224;2023-04-08T11:52:41;102094.06;;;23.47;17.71
46682;BME280;34101;53.430;-2.224;2023-04-08T11:55:09;102094.90;;;23.46;17.66
46682;BME280;34101;53.430;-2.224;2023-04-08T11:57:36;102095.88;;;23.57;18.48
46682;BME280;34101;53.430;-2.224;2023-04-08T12:00:05;102097.28;;;23.83;18.42
46682;BME280;34101;53.430;-2.224;2023-04-08T12:02:32;102101.39;;;23.71;18.25
46682;BME280;34101;53.430;-2.224;2023-04-08T12:04:59;102100.13;;;22.62;18.86
46682;BME280;34101;53.430;-2.224;2023-04-08T12:07:32;102102.88;;;21.45;20.52
46682;BME280;34101;53.430;-2.224;2023-04-08T12:09:59;102101.45;;;21.99;19.51
46682;BME280;34101;53.430;-2.224;2023-04-08T12:12:27;102109.18;;;22.25;19.34
46682;BME280;34101;53.430;-2.224;2023-04-08T12:14:59;102113.49;;;21.45;19.90
46682;BME280;34101;53.430;-2.224;2023-04-08T12:17:26;102107.07;;;21.72;19.43
46682;BME280;34101;53.430;-2.224;2023-04-08T12:19:58;102107.73;;;21.82;19.44
46682;BME280;34101;53.430;-2.224;2023-04-08T12:22:26;102099.97;;;22.14;19.50
46682;BME280;34101;53.430;-2.224;2023-04-08T12:24:53;102100.04;;;21.74;18.99
46682;BME280;34101;53.430;-2.224;2023-04-08T12:27:21;102105.93;;;20.37;21.39
46682;BME280;34101;53.430;-2.224;2023-04-08T12:29:48;102104.95;;;20.37;21.05
46682;BME280;34101;53.430;-2.224;2023-04-08T12:32:16;102098.27;;;20.02;22.44
46682;BME280;34101;53.430;-2.224;2023-04-08T12:34:44;102103.43;;;19.76;22.05
46682;BME280;34101;53.430;-2.224;2023-04-08T12:37:11;102098.73;;;19.81;22.23
46682;BME280;34101;53.430;-2.224;2023-04-08T12:39:38;102097.65;;;19.72;22.44
46682;BME280;34101;53.430;-2.224;2023-04-08T12:42:05;102096.39;;;19.62;22.41
46682;BME280;34101;53.430;-2.224;2023-04-08T12:44:33;102090.03;;;19.52;23.07
46682;BME280;34101;53.430;-2.224;2023-04-08T12:47:00;102091.45;;;18.64;24.10
46682;BME280;34101;53.430;-2.224;2023-04-08T12:49:28;102087.46;;;18.93;24.24
46682;BME280;34101;53.430;-2.224;2023-04-08T12:51:55;102087.86;;;18.72;25.21
46682;BME280;34101;53.430;-2.224;2023-04-08T12:54:23;102097.76;;;19.22;24.25
46682;BME280;34101;53.430;-2.224;2023-04-08T12:56:50;102088.83;;;19.28;22.86
46682;BME280;34101;53.430;-2.224;2023-04-08T12:59:23;102095.59;;;19.08;22.47